Terminal Aerodrome Forecast
Issued by NWS

Home | Current Version | Previous Version | Text Only | Print | Product List | Glossary On
Versions: 1 2 3 4 5 6 7 8 9 10 11 12 13 14 15
000
FTUS45 KLKN 202300
TAFELY
TAF
KELY 202328Z 2100/2124 30012KT P6SM SCT100 SCT250
     FM210200 17009KT P6SM SCT250
     FM211900 19020G30KT P6SM SCT080 BKN200=

USA.gov is the U.S. government's official web portal to all federal, state and local government web resources and services.